Time;durP1;ratioP1;P1;durP2;ratioP2;P2;SDS_P1;SDS_P2;PMS_P1;PMS_P2;Temp;Humidity;BMP_temperature;BMP_pressure;BME280_temperature;BME280_humidity;BME280_pressure;Samples;Min_cycle;Max_cycle;Signal;HPM_P1;HPM_P2
2023/06/26 00:02:12;;;;;;;25.33;23.05;;;;;;;21.67;57.94;100282.72;5020230;28;97295;-80
2023/06/26 00:04:37;;;;;;;24.75;22.67;;;;;;;21.56;58.06;100265.88;5029815;28;97625;-79
2023/06/26 00:07:04;;;;;;;26.13;23.92;;;;;;;21.64;58.21;100282.09;5027393;28;98523;-80
2023/06/26 00:09:29;;;;;;;25.67;23.48;;;;;;;21.45;58.13;100254.22;5021945;28;96974;-79
2023/06/26 00:11:55;;;;;;;26.55;24.20;;;;;;;21.58;58.37;100278.09;5023868;28;97109;-80
2023/06/26 00:14:20;;;;;;;25.70;23.60;;;;;;;21.50;58.38;100275.22;5030994;28;98852;-80
2023/06/26 00:16:49;;;;;;;27.33;24.92;;;;;;;21.52;58.46;100280.41;5020123;28;98376;-79
2023/06/26 00:19:15;;;;;;;26.55;24.27;;;;;;;21.39;58.46;100264.56;4999470;28;96943;-79
2023/06/26 00:21:46;;;;;;;26.80;24.52;;;;;;;21.40;59.05;100259.06;5022485;28;96975;-79
2023/06/26 00:24:12;;;;;;;27.30;24.70;;;;;;;21.39;58.83;100265.38;4997771;28;99245;-80
2023/06/26 00:26:38;;;;;;;27.20;24.88;;;;;;;21.47;59.20;100278.13;5015384;28;98666;-79
2023/06/26 00:29:04;;;;;;;27.15;24.85;;;;;;;21.42;58.86;100269.63;5022571;28;96827;-79
2023/06/26 00:31:30;;;;;;;27.23;24.70;;;;;;;21.38;58.99;100268.16;5018297;28;96844;-79
2023/06/26 00:33:55;;;;;;;26.58;24.35;;;;;;;21.46;58.85;100279.09;5023346;28;98527;-79
2023/06/26 00:36:23;;;;;;;27.42;25.17;;;;;;;21.43;59.13;100282.00;4994777;28;99964;-79
2023/06/26 00:38:51;;;;;;;26.83;24.15;;;;;;;21.41;59.11;100273.25;5027147;28;96905;-80
2023/06/26 00:41:17;;;;;;;27.50;25.30;;;;;;;21.36;59.08;100267.44;5027358;28;96913;-80
2023/06/26 00:43:43;;;;;;;27.85;25.15;;;;;;;21.38;59.21;100274.38;5010701;28;98722;-80
2023/06/26 00:46:11;;;;;;;27.35;24.85;;;;;;;21.31;59.14;100265.13;5004873;28;99810;-80
2023/06/26 00:48:37;;;;;;;26.38;24.27;;;;;;;21.21;59.31;100251.66;5006685;28;96973;-79
2023/06/26 00:51:02;;;;;;;25.92;23.80;;;;;;;21.18;59.51;100245.72;4994605;28;97217;-80
2023/06/26 00:53:28;;;;;;;26.60;24.40;;;;;;;21.24;59.63;100259.44;4996596;28;99019;-79
2023/06/26 00:55:54;;;;;;;27.35;24.95;;;;;;;21.26;59.58;100264.63;4995166;28;98270;-79
2023/06/26 00:58:22;;;;;;;27.23;24.85;;;;;;;21.24;59.58;100256.75;4999544;28;97254;-80
2023/06/26 01:00:49;;;;;;;26.63;24.17;;;;;;;21.12;59.36;100239.06;4997626;28;96836;-79
2023/06/26 01:03:14;;;;;;;25.92;23.55;;;;;;;21.06;59.60;100228.88;5021863;28;97541;-79
2023/06/26 01:05:40;;;;;;;26.88;24.30;;;;;;;21.10;59.75;100238.31;5009598;28;98343;-80
2023/06/26 01:08:06;;;;;;;25.17;23.08;;;;;;;21.07;59.79;100238.56;4997912;28;97213;-79
2023/06/26 01:10:32;;;;;;;25.42;23.30;;;;;;;21.07;59.74;100246.56;5005923;28;97858;-79
2023/06/26 01:12:59;;;;;;;25.88;23.80;;;;;;;21.07;59.88;100257.25;4995382;28;100694;-79
2023/06/26 01:15:24;;;;;;;26.10;23.77;;;;;;;20.99;60.34;100257.84;5029583;28;100317;-79
2023/06/26 01:17:51;;;;;;;26.08;23.48;;;;;;;20.93;60.50;100249.47;5031707;28;97113;-80
2023/06/26 01:20:17;;;;;;;25.60;23.50;;;;;;;20.86;60.20;100241.09;5016045;28;97109;-80
2023/06/26 01:22:50;;;;;;;26.02;23.67;;;;;;;20.92;60.30;100258.47;4996793;28;97518;-79
2023/06/26 01:25:30;;;;;;;26.20;23.60;;;;;;;20.89;60.22;100259.53;4997451;28;100560;-79
2023/06/26 01:27:56;;;;;;;25.52;23.45;;;;;;;20.79;60.33;100246.06;5004343;28;97253;-80
2023/06/26 01:30:23;;;;;;;24.08;22.27;;;;;;;20.70;60.40;100235.25;4993780;27;97597;-80
2023/06/26 01:32:49;;;;;;;24.42;22.40;;;;;;;20.79;60.35;100246.06;4990062;28;98957;-80
2023/06/26 01:35:15;;;;;;;25.83;23.30;;;;;;;20.74;60.16;100244.72;4990599;28;100391;-80
2023/06/26 01:37:40;;;;;;;23.80;21.88;;;;;;;20.69;60.54;100237.09;5033274;28;97104;-79
2023/06/26 01:40:07;;;;;;;26.05;23.63;;;;;;;20.74;60.50;100242.91;5023703;28;96943;-80
2023/06/26 01:42:35;;;;;;;25.23;22.92;;;;;;;20.77;60.46;100249.84;5015288;28;98772;-79
2023/06/26 01:45:17;;;;;;;24.73;22.70;;;;;;;20.66;60.41;100237.31;5019457;28;98709;-79
2023/06/26 01:47:47;;;;;;;24.63;22.48;;;;;;;20.39;60.51;100197.63;5003418;28;96783;-80
2023/06/26 01:50:17;;;;;;;22.60;20.90;;;;;;;20.62;60.44;100227.84;4998988;28;98061;-80
2023/06/26 01:52:59;;;;;;;23.98;21.75;;;;;;;20.63;60.66;100234.06;5004405;28;97652;-79
2023/06/26 01:55:35;;;;;;;25.55;23.38;;;;;;;20.65;60.70;100237.44;4997725;28;99997;-79
2023/06/26 01:58:01;;;;;;;25.27;22.92;;;;;;;20.64;60.70;100233.06;4975462;28;97261;-79
2023/06/26 02:00:27;;;;;;;25.70;22.77;;;;;;;20.63;60.67;100239.38;5029979;28;97192;-80
2023/06/26 02:02:53;;;;;;;25.33;23.23;;;;;;;20.55;60.65;100223.97;5010790;28;98730;-79
2023/06/26 02:05:18;;;;;;;25.08;22.92;;;;;;;20.46;60.87;100211.31;5033872;28;98348;-80
2023/06/26 02:07:44;;;;;;;26.10;23.73;;;;;;;20.53;60.97;100228.56;5032775;28;96978;-79
2023/06/26 02:10:10;;;;;;;25.02;22.85;;;;;;;20.45;60.97;100214.94;5027873;28;96920;-79
2023/06/26 02:12:36;;;;;;;25.15;22.80;;;;;;;20.53;60.79;100223.22;5029282;28;100639;-79
2023/06/26 02:15:02;;;;;;;24.17;22.35;;;;;;;20.43;60.79;100214.22;5029597;28;99763;-80
2023/06/26 02:17:28;;;;;;;24.58;22.38;;;;;;;20.40;61.02;100219.78;5029940;28;96851;-79
2023/06/26 02:19:54;;;;;;;25.45;23.23;;;;;;;20.35;60.99;100218.31;5032919;28;97476;-79
2023/06/26 02:22:20;;;;;;;25.02;22.67;;;;;;;20.39;61.30;100228.72;5016208;27;98696;-79
2023/06/26 02:24:47;;;;;;;25.17;22.95;;;;;;;20.42;61.17;100233.81;5014676;28;98445;-79
2023/06/26 02:27:13;;;;;;;25.17;23.17;;;;;;;20.32;61.16;100223.88;5010345;28;96853;-79
2023/06/26 02:29:39;;;;;;;24.55;22.25;;;;;;;20.39;61.13;100245.59;5016876;28;96900;-79
2023/06/26 02:32:07;;;;;;;24.70;22.70;;;;;;;20.37;61.09;100231.53;5001354;28;100325;-79
2023/06/26 02:34:33;;;;;;;24.88;22.70;;;;;;;20.29;61.51;100223.25;5019734;28;98321;-79
2023/06/26 02:37:00;;;;;;;24.75;22.55;;;;;;;20.32;61.36;100234.53;5003532;28;97159;-79
2023/06/26 02:39:26;;;;;;;23.15;21.35;;;;;;;20.30;61.37;100235.63;5022272;28;97305;-79
2023/06/26 02:41:52;;;;;;;26.05;23.88;;;;;;;20.30;61.25;100235.63;5024157;28;99060;-79
2023/06/26 02:44:19;;;;;;;25.40;22.95;;;;;;;20.18;61.22;100220.56;4999855;28;98931;-79
2023/06/26 02:46:45;;;;;;;25.02;22.58;;;;;;;20.28;61.28;100237.56;5025584;28;96837;-79
2023/06/26 02:49:10;;;;;;;25.35;21.77;;;;;;;20.24;61.33;100231.59;5014838;28;97163;-79
2023/06/26 02:51:36;;;;;;;24.20;22.00;;;;;;;20.15;61.50;100218.97;5010560;28;99875;-80
2023/06/26 02:54:09;;;;;;;24.23;22.10;;;;;;;20.12;61.33;100220.06;5031465;28;99906;-79
2023/06/26 02:56:34;;;;;;;24.95;22.52;;;;;;;20.25;61.59;100235.13;5014252;28;96784;-79
2023/06/26 02:59:00;;;;;;;23.80;21.38;;;;;;;20.13;61.29;100212.94;4995944;28;96978;-79
2023/06/26 03:01:28;;;;;;;25.83;23.17;;;;;;;20.15;61.25;100229.63;4998227;28;100881;-79
2023/06/26 03:03:54;;;;;;;24.05;21.95;;;;;;;20.20;61.64;100235.47;5015649;28;98413;-80
2023/06/26 03:06:21;;;;;;;24.13;22.20;;;;;;;20.25;61.36;100235.97;5002238;28;98266;-79
2023/06/26 03:08:46;;;;;;;25.65;22.92;;;;;;;20.27;61.17;100235.84;4999452;28;97230;-79
2023/06/26 03:11:14;;;;;;;26.02;23.70;;;;;;;19.97;61.14;100193.72;5004597;28;100694;-79
2023/06/26 03:13:39;;;;;;;23.15;21.05;;;;;;;20.28;61.22;100243.75;5027002;28;98357;-79
2023/06/26 03:16:05;;;;;;;24.75;22.40;;;;;;;20.30;61.01;100233.81;4998812;28;97005;-79
2023/06/26 03:18:31;;;;;;;24.67;22.23;;;;;;;20.32;61.07;100229.22;5031612;28;97332;-79
2023/06/26 03:20:57;;;;;;;24.75;22.40;;;;;;;20.26;60.88;100213.69;5008489;28;99493;-79
2023/06/26 03:23:23;;;;;;;23.15;20.70;;;;;;;20.44;60.81;100221.25;4994435;28;99219;-79
2023/06/26 03:25:49;;;;;;;23.63;21.50;;;;;;;20.45;60.61;100210.47;4994597;28;96878;-79
2023/06/26 03:28:31;;;;;;;23.83;21.73;;;;;;;20.56;60.47;100215.00;4996227;28;96857;-79
2023/06/26 03:30:57;;;;;;;23.85;21.63;;;;;;;20.60;60.30;100219.13;4999811;28;100646;-79
2023/06/26 03:33:24;;;;;;;23.83;21.75;;;;;;;20.62;60.35;100213.66;4995095;28;100351;-80
2023/06/26 03:35:50;;;;;;;23.30;21.33;;;;;;;20.75;60.36;100212.59;4986816;28;97227;-79
2023/06/26 03:38:15;;;;;;;24.58;21.63;;;;;;;20.76;60.28;100210.78;5018897;28;96876;-79
2023/06/26 03:40:43;;;;;;;24.60;22.27;;;;;;;20.77;60.22;100196.50;5024421;28;100432;-79
2023/06/26 03:43:09;;;;;;;23.80;21.73;;;;;;;20.93;59.89;100217.47;5019325;28;100928;-79
2023/06/26 03:45:44;;;;;;;24.98;21.38;;;;;;;21.04;59.49;100220.13;5002394;28;96869;-79
2023/06/26 03:48:10;;;;;;;24.23;20.98;;;;;;;21.11;59.28;100216.00;5024844;28;97955;-79
2023/06/26 03:50:35;;;;;;;23.08;20.58;;;;;;;21.19;59.08;100216.22;5029036;28;99057;-79
2023/06/26 03:53:02;;;;;;;23.95;21.75;;;;;;;21.25;59.07;100223.75;5011025;28;100222;-79
2023/06/26 03:55:27;;;;;;;24.10;21.55;;;;;;;21.32;58.87;100216.13;5021786;28;96980;-79
2023/06/26 03:57:53;;;;;;;22.23;19.88;;;;;;;21.40;58.71;100226.19;5013894;28;97724;-79
2023/06/26 04:00:18;;;;;;;22.63;20.45;;;;;;;21.43;58.20;100217.94;4995782;28;100486;-79
2023/06/26 04:02:44;;;;;;;22.30;20.50;;;;;;;21.55;58.32;100219.59;5013651;28;97009;-79
2023/06/26 04:05:11;;;;;;;23.08;20.65;;;;;;;21.63;58.02;100216.31;5015611;28;97207;-80
2023/06/26 04:07:37;;;;;;;24.20;20.83;;;;;;;21.56;57.65;100193.75;4999719;28;97514;-79
2023/06/26 04:10:06;;;;;;;23.40;21.15;;;;;;;21.75;57.26;100201.94;5000581;28;100255;-79
2023/06/26 04:12:32;;;;;;;24.27;21.80;;;;;;;21.86;57.14;100204.56;5002974;28;100056;-79
2023/06/26 04:14:58;;;;;;;23.08;20.77;;;;;;;21.95;56.94;100210.13;5020855;28;97508;-79
2023/06/26 04:17:23;;;;;;;23.90;21.40;;;;;;;22.09;56.74;100209.81;5028309;28;97408;-79
2023/06/26 04:19:49;;;;;;;28.67;22.38;;;;;;;22.20;56.31;100209.81;5030828;28;98875;-79
2023/06/26 04:22:14;;;;;;;26.23;22.10;;;;;;;22.27;56.08;100213.66;5016122;28;98934;-79
2023/06/26 04:24:40;;;;;;;24.63;22.08;;;;;;;22.34;56.08;100214.84;5013461;28;97177;-80
2023/06/26 04:27:05;;;;;;;24.27;21.80;;;;;;;22.37;55.60;100203.03;4994521;28;96888;-79
2023/06/26 04:29:31;;;;;;;23.98;21.40;;;;;;;22.57;55.27;100212.88;5014489;28;98601;-80
2023/06/26 04:31:59;;;;;;;22.77;20.85;;;;;;;22.60;55.10;100206.38;5016877;28;98850;-80
2023/06/26 04:34:26;;;;;;;26.83;22.73;;;;;;;22.70;54.99;100207.28;4999389;28;96726;-80
2023/06/26 04:36:51;;;;;;;23.38;21.05;;;;;;;22.83;54.93;100205.25;4998947;28;97337;-80
2023/06/26 04:39:17;;;;;;;23.55;21.48;;;;;;;22.93;54.49;100199.94;5001563;28;98704;-80
2023/06/26 04:41:42;;;;;;;23.30;21.17;;;;;;;23.04;54.26;100209.75;4993807;28;98236;-80
2023/06/26 04:44:08;;;;;;;23.50;21.35;;;;;;;23.21;53.79;100200.19;4990556;28;97262;-80
2023/06/26 04:46:34;;;;;;;23.35;21.02;;;;;;;23.28;53.52;100202.22;4996719;28;97019;-80
2023/06/26 04:48:59;;;;;;;23.55;21.48;;;;;;;23.43;53.33;100212.53;4997202;28;98916;-80
2023/06/26 04:51:26;;;;;;;23.08;20.98;;;;;;;23.53;53.10;100201.84;4998259;28;98577;-79
2023/06/26 04:53:52;;;;;;;23.80;21.00;;;;;;;23.63;53.13;100203.53;5001345;28;96806;-80
2023/06/26 04:56:18;;;;;;;23.95;21.85;;;;;;;23.82;52.68;100210.78;4999973;28;96907;-79
2023/06/26 04:58:43;;;;;;;22.65;20.85;;;;;;;23.86;52.56;100203.31;4997031;28;98638;-79
2023/06/26 05:01:10;;;;;;;23.30;21.15;;;;;;;23.92;52.21;100211.63;4993714;28;98458;-79
2023/06/26 05:03:36;;;;;;;23.30;21.52;;;;;;;24.06;51.91;100196.13;5000482;28;96776;-80
2023/06/26 05:06:02;;;;;;;24.70;22.13;;;;;;;24.16;51.21;100194.28;4994875;28;97439;-79
2023/06/26 05:08:27;;;;;;;23.08;20.90;;;;;;;24.26;51.26;100191.56;4996215;28;98487;-79
2023/06/26 05:10:57;;;;;;;24.20;21.95;;;;;;;24.30;51.08;100182.25;5001063;28;98514;-79
2023/06/26 05:13:23;;;;;;;23.77;21.55;;;;;;;24.41;50.98;100198.19;4988841;28;96725;-79
2023/06/26 05:15:49;;;;;;;23.27;21.27;;;;;;;24.48;50.86;100183.25;5004122;28;96991;-79
2023/06/26 05:18:14;;;;;;;23.90;21.90;;;;;;;24.56;50.62;100185.19;5006567;28;99291;-79
2023/06/26 05:20:40;;;;;;;23.38;21.38;;;;;;;24.58;50.22;100184.06;5006107;28;98545;-79
2023/06/26 05:23:06;;;;;;;22.92;21.08;;;;;;;24.81;49.89;100191.75;5007114;28;97204;-79
2023/06/26 05:25:33;;;;;;;23.88;21.98;;;;;;;24.97;49.98;100191.13;4994687;28;97172;-79
2023/06/26 05:27:59;;;;;;;22.65;20.60;;;;;;;25.13;49.72;100194.00;4974601;28;98988;-78
2023/06/26 05:30:27;;;;;;;23.38;21.10;;;;;;;25.51;49.01;100195.66;4998245;28;98747;-79
2023/06/26 05:32:56;;;;;;;22.75;20.85;;;;;;;25.67;49.12;100191.44;5010227;28;97218;-79
2023/06/26 05:35:22;;;;;;;23.60;21.38;;;;;;;25.85;48.79;100192.31;4996854;28;97121;-79
2023/06/26 05:37:49;;;;;;;23.30;21.20;;;;;;;26.04;48.07;100190.50;5016787;28;98992;-79
2023/06/26 05:40:18;;;;;;;23.38;21.40;;;;;;;26.42;47.45;100187.41;5019843;28;98714;-78
2023/06/26 05:42:44;;;;;;;22.75;20.58;;;;;;;26.61;47.35;100186.38;5015325;28;96845;-79
2023/06/26 05:45:10;;;;;;;23.17;21.17;;;;;;;26.80;46.68;100188.00;5013890;28;96870;-79
2023/06/26 05:47:36;;;;;;;22.63;20.27;;;;;;;27.15;46.00;100196.06;5013135;28;99359;-80
2023/06/26 05:50:02;;;;;;;23.38;21.27;;;;;;;27.33;45.41;100182.53;5017714;28;98279;-80
2023/06/26 05:52:27;;;;;;;22.17;20.45;;;;;;;27.87;44.61;100186.53;5027519;28;96769;-79
2023/06/26 05:54:54;;;;;;;22.88;20.90;;;;;;;28.44;43.15;100174.88;5016400;28;96964;-77
2023/06/26 05:57:20;;;;;;;21.77;20.15;;;;;;;29.24;41.70;100184.78;5015312;28;98841;-77
2023/06/26 05:59:46;;;;;;;23.23;21.02;;;;;;;30.52;39.79;100178.81;5018300;28;98301;-78
2023/06/26 06:02:12;;;;;;;22.77;20.63;;;;;;;31.72;37.85;100187.44;5017071;28;97025;-77
2023/06/26 06:04:38;;;;;;;20.85;19.30;;;;;;;33.79;34.71;100176.84;5022691;28;97171;-77
2023/06/26 06:07:04;;;;;;;21.70;20.00;;;;;;;36.40;30.96;100174.88;5016295;28;98841;-78
2023/06/26 06:09:30;;;;;;;23.08;21.02;;;;;;;38.30;28.03;100172.78;5021335;28;98986;-78
2023/06/26 06:11:55;;;;;;;21.92;20.05;;;;;;;39.71;26.67;100173.31;5024130;28;97017;-78
2023/06/26 06:14:20;;;;;;;23.00;20.92;;;;;;;41.15;24.83;100151.56;5027689;28;96971;-77
2023/06/26 06:16:46;;;;;;;22.55;20.65;;;;;;;42.02;23.88;100168.97;5028313;28;97830;-85
2023/06/26 06:19:13;;;;;;;22.63;20.75;;;;;;;42.44;23.09;100170.91;5027056;28;99026;-85
2023/06/26 06:21:39;;;;;;;21.92;20.40;;;;;;;43.34;22.15;100173.53;5030896;28;96819;-85
2023/06/26 06:24:06;;;;;;;21.02;19.60;;;;;;;43.88;21.72;100169.50;5017923;28;97075;-84
2023/06/26 06:26:32;;;;;;;21.38;19.65;;;;;;;44.29;21.57;100164.75;5012357;28;98766;-84
2023/06/26 06:28:57;;;;;;;22.77;20.80;;;;;;;44.20;20.61;100166.44;5014715;28;98295;-82
2023/06/26 06:31:22;;;;;;;22.83;20.88;;;;;;;44.99;20.34;100164.03;5015125;28;96922;-81
2023/06/26 06:33:48;;;;;;;21.25;19.38;;;;;;;45.37;20.29;100167.97;5020137;28;97114;-81
2023/06/26 06:36:13;;;;;;;20.98;19.30;;;;;;;45.78;20.26;100164.91;5018178;28;98997;-81
2023/06/26 06:38:43;;;;;;;21.67;19.75;;;;;;;46.23;19.35;100157.34;5021759;28;98393;-80
2023/06/26 06:41:08;;;;;;;22.80;20.88;;;;;;;46.11;18.93;100171.59;5022117;28;96796;-81
2023/06/26 06:43:34;;;;;;;18.65;16.88;;;;;;;46.71;18.66;100157.38;5021751;28;97279;-82
2023/06/26 06:45:59;;;;;;;21.85;20.02;;;;;;;47.17;18.92;100163.16;5021055;28;98672;-81
2023/06/26 06:48:25;;;;;;;21.63;19.95;;;;;;;47.41;18.32;100165.06;5025489;28;98353;-81
2023/06/26 06:50:50;;;;;;;20.98;19.35;;;;;;;46.83;18.45;100152.22;5025940;28;96764;-81
2023/06/26 06:53:17;;;;;;;21.85;20.33;;;;;;;46.61;18.09;100147.22;5010729;28;97424;-82
2023/06/26 06:55:43;;;;;;;21.25;19.65;;;;;;;47.42;17.83;100158.38;5025947;28;98914;-81
2023/06/26 06:58:08;;;;;;;21.20;19.42;;;;;;;48.18;17.80;100166.59;5020452;28;97332;-81
2023/06/26 07:00:33;;;;;;;21.05;19.33;;;;;;;48.84;17.27;100148.56;5014463;28;97039;-82
2023/06/26 07:03:00;;;;;;;21.13;19.42;;;;;;;49.02;17.02;100155.16;5017229;28;97787;-82
2023/06/26 07:05:25;;;;;;;21.17;19.42;;;;;;;49.23;16.62;100151.94;4993733;28;98803;-83
2023/06/26 07:07:51;;;;;;;20.50;19.05;;;;;;;49.54;16.24;100147.25;5011280;28;98837;-83
2023/06/26 07:10:16;;;;;;;20.20;18.63;;;;;;;49.74;16.31;100154.28;5020433;28;97180;-83
2023/06/26 07:12:43;;;;;;;21.73;20.13;;;;;;;49.31;15.65;100138.09;5027200;28;97763;-82
2023/06/26 07:15:09;;;;;;;23.00;20.73;;;;;;;49.06;16.16;100147.81;5029325;28;98761;-82
2023/06/26 07:17:35;;;;;;;19.90;18.60;;;;;;;49.50;15.63;100140.66;5028538;28;98651;-82
2023/06/26 07:20:04;;;;;;;22.42;20.90;;;;;;;49.94;16.06;100136.25;5021211;28;96707;-82
2023/06/26 07:22:30;;;;;;;20.30;18.88;;;;;;;50.84;15.34;100140.69;4993484;28;96972;-82
2023/06/26 07:24:56;;;;;;;20.33;19.13;;;;;;;50.96;15.62;100135.28;5004355;28;98810;-82
2023/06/26 07:27:22;;;;;;;19.80;18.50;;;;;;;51.04;15.12;100125.31;5005369;28;98235;-82
2023/06/26 07:29:47;;;;;;;21.10;19.50;;;;;;;51.09;15.04;100128.75;5012947;28;96767;-87
2023/06/26 07:32:13;;;;;;;20.95;19.48;;;;;;;50.12;15.24;100128.75;5027798;27;96914;-85
2023/06/26 07:34:38;;;;;;;20.20;18.92;;;;;;;51.21;14.58;100127.28;5020827;28;98986;-85
2023/06/26 07:37:04;;;;;;;20.58;19.17;;;;;;;51.44;14.39;100130.75;5022550;28;98331;-85
2023/06/26 07:39:30;;;;;;;19.95;18.75;;;;;;;51.80;14.16;100128.38;5023272;28;97249;-86
2023/06/26 07:41:55;;;;;;;21.00;19.52;;;;;;;52.41;14.13;100128.19;5007485;28;96939;-86
2023/06/26 07:44:21;;;;;;;21.55;20.08;;;;;;;52.60;14.06;100127.75;5020040;28;97556;-85
2023/06/26 07:46:47;;;;;;;21.13;19.75;;;;;;;52.66;14.02;100134.81;5024861;28;98368;-83
2023/06/26 07:49:13;;;;;;;21.23;19.92;;;;;;;52.90;13.52;100136.94;5026814;28;96984;-83
2023/06/26 07:51:38;;;;;;;20.88;19.50;;;;;;;53.65;13.41;100126.91;5027006;28;97028;-82
2023/06/26 07:54:04;;;;;;;21.38;20.08;;;;;;;53.91;13.23;100127.47;5020566;28;99187;-83
2023/06/26 07:56:29;;;;;;;20.38;19.17;;;;;;;53.87;12.81;100125.72;5021361;28;98381;-83
2023/06/26 07:58:57;;;;;;;20.58;19.05;;;;;;;49.36;15.61;100139.91;5026152;28;97201;-82
2023/06/26 08:01:24;;;;;;;;;;;;;;;51.04;14.83;100125.31;5018734;28;96898;-82
2023/06/26 08:03:49;;;;;;;22.33;20.65;;;;;;;52.53;13.64;100135.03;5014392;28;98686;-83
2023/06/26 08:06:15;;;;;;;21.10;19.17;;;;;;;49.60;15.61;100118.16;5017597;28;98361;-81
2023/06/26 08:08:43;;;;;;;21.67;20.27;;;;;;;48.49;16.43;100127.84;5022005;28;96749;-82
2023/06/26 08:11:09;;;;;;;21.17;19.73;;;;;;;48.00;16.74;100120.97;5026575;28;96909;-80
2023/06/26 08:13:34;;;;;;;22.05;20.55;;;;;;;46.27;17.66;100114.00;5019079;28;98689;-79
2023/06/26 08:16:03;;;;;;;22.67;21.17;;;;;;;46.78;17.05;100107.88;5023623;28;98487;-80
2023/06/26 08:18:29;;;;;;;22.98;21.48;;;;;;;44.53;18.83;100122.69;5012878;27;96807;-80
2023/06/26 08:20:55;;;;;;;21.50;20.20;;;;;;;43.76;19.60;100120.03;5025035;28;98290;-79
2023/06/26 08:23:21;;;;;;;20.63;19.17;;;;;;;43.61;20.14;100118.91;5011278;28;98564;-79
2023/06/26 08:25:47;;;;;;;22.27;20.88;;;;;;;43.18;20.20;100125.75;4996821;28;98303;-79
2023/06/26 08:28:12;;;;;;;25.70;23.23;;;;;;;45.73;18.80;100115.06;5018919;28;96919;-79
2023/06/26 08:30:38;;;;;;;22.95;21.30;;;;;;;47.08;17.05;100117.75;5018375;28;96846;-79
2023/06/26 08:33:03;;;;;;;26.92;24.42;;;;;;;47.65;17.35;100111.31;5012486;28;98639;-79
2023/06/26 08:35:29;;;;;;;22.13;20.40;;;;;;;46.81;16.73;100112.00;5016814;28;97757;-79
2023/06/26 08:37:55;;;;;;;20.85;19.55;;;;;;;44.30;17.89;100114.69;5013174;28;97589;-80
2023/06/26 08:40:21;;;;;;;20.15;18.92;;;;;;;43.02;19.27;100105.50;5015004;28;96848;-80
2023/06/26 08:42:46;;;;;;;20.70;19.40;;;;;;;41.49;20.29;100105.41;4999080;28;100221;-79
2023/06/26 08:45:12;;;;;;;20.85;19.45;;;;;;;40.13;21.74;100112.47;5012559;28;98282;-74
2023/06/26 08:47:39;;;;;;;20.38;18.95;;;;;;;38.72;23.54;100104.97;5003633;28;96845;-82
2023/06/26 08:50:10;;;;;;;20.75;19.45;;;;;;;39.07;24.11;100115.84;5005538;28;97869;-80
2023/06/26 08:52:39;;;;;;;20.77;19.42;;;;;;;38.72;24.90;100113.19;5003943;28;98746;-78
2023/06/26 08:55:09;;;;;;;20.90;19.50;;;;;;;38.21;24.78;100115.59;5012108;28;98576;-78
2023/06/26 08:57:36;;;;;;;21.25;19.85;;;;;;;38.18;25.76;100110.59;5023577;28;96831;-78
2023/06/26 09:00:03;;;;;;;22.38;20.77;;;;;;;38.11;27.54;100111.78;4990605;28;97524;-77
2023/06/26 09:02:28;;;;;;;22.00;20.60;;;;;;;37.51;24.88;100110.84;5015933;28;98927;-77
2023/06/26 09:04:54;;;;;;;22.45;20.92;;;;;;;37.13;26.11;100108.44;5014114;28;98426;-77
2023/06/26 09:07:20;;;;;;;22.17;20.67;;;;;;;37.00;27.32;100103.97;4998208;28;97496;-77
2023/06/26 09:09:45;;;;;;;21.08;19.75;;;;;;;36.65;25.74;100114.69;5020555;28;96946;-76
2023/06/26 09:12:11;;;;;;;22.25;20.77;;;;;;;36.16;26.38;100106.38;4997781;28;98802;-76
2023/06/26 09:14:37;;;;;;;22.65;20.80;;;;;;;35.55;26.32;100116.09;5021816;28;98562;-77
2023/06/26 09:17:03;;;;;;;21.02;19.73;;;;;;;35.51;27.69;100111.25;5016918;28;97526;-76
2023/06/26 09:19:29;;;;;;;23.02;21.05;;;;;;;34.93;27.08;100099.38;5023137;28;96956;-76
2023/06/26 09:21:55;;;;;;;21.95;20.55;;;;;;;34.59;27.28;100100.59;5016431;28;98832;-76
2023/06/26 09:24:21;;;;;;;22.02;20.35;;;;;;;34.43;28.11;100092.84;5005734;28;98641;-76
2023/06/26 09:26:48;;;;;;;22.08;20.45;;;;;;;34.66;28.13;100097.84;5015399;28;97297;-75
2023/06/26 09:29:14;;;;;;;20.45;19.15;;;;;;;34.84;28.45;100089.78;5020144;28;96904;-75
2023/06/26 09:31:40;;;;;;;21.15;19.65;;;;;;;34.86;28.85;100095.88;5020585;28;99243;-75
2023/06/26 09:34:06;;;;;;;21.50;20.05;;;;;;;34.62;28.68;100094.72;5024510;27;98322;-75
2023/06/26 09:36:33;;;;;;;20.65;19.25;;;;;;;34.11;28.02;100106.31;5019625;28;96777;-75
2023/06/26 09:39:04;;;;;;;21.90;20.27;;;;;;;33.05;29.45;100090.66;5022819;28;96882;-75
2023/06/26 09:41:30;;;;;;;21.58;20.00;;;;;;;32.90;29.35;100079.06;5025272;28;98769;-75
2023/06/26 09:44:02;;;;;;;21.63;20.02;;;;;;;33.12;29.12;100072.47;5015249;28;98637;-75
2023/06/26 09:46:29;;;;;;;21.63;20.17;;;;;;;33.45;28.77;100079.84;5023462;28;96919;-75
2023/06/26 09:49:05;;;;;;;21.13;19.65;;;;;;;33.55;29.66;100077.59;5012268;28;98135;-75
2023/06/26 09:51:32;;;;;;;20.08;18.88;;;;;;;33.19;29.70;100091.53;5019437;28;98715;-75
2023/06/26 09:53:58;;;;;;;21.70;20.30;;;;;;;32.42;30.88;100088.03;5021416;28;98394;-75
2023/06/26 09:56:24;;;;;;;20.85;19.45;;;;;;;32.72;31.19;100082.34;5027675;28;97158;-75
2023/06/26 09:58:50;;;;;;;21.23;19.83;;;;;;;33.05;31.47;100082.50;5016134;28;97051;-75
2023/06/26 10:01:15;;;;;;;21.23;19.63;;;;;;;32.86;30.08;100073.19;5019055;28;98658;-75
2023/06/26 10:03:41;;;;;;;21.42;19.88;;;;;;;32.76;30.34;100086.34;5014545;28;98406;-75
2023/06/26 10:06:09;;;;;;;20.85;19.35;;;;;;;32.76;30.60;100080.09;5000081;28;97154;-75
2023/06/26 10:08:36;;;;;;;21.33;19.92;;;;;;;32.32;30.78;100090.28;5001411;28;96867;-69
2023/06/26 10:11:01;;;;;;;21.25;19.70;;;;;;;32.23;31.51;100067.00;4996809;28;98618;-69
2023/06/26 10:13:38;;;;;;;22.27;20.58;;;;;;;32.42;32.20;100081.75;5019169;28;99795;-68
2023/06/26 10:16:05;;;;;;;21.20;19.80;;;;;;;32.38;32.00;100062.31;5002905;28;96950;-78
2023/06/26 10:18:32;;;;;;;20.98;19.30;;;;;;;32.67;32.03;100071.25;4995175;28;96963;-78
2023/06/26 10:20:59;;;;;;;20.92;19.48;;;;;;;32.83;31.95;100073.63;5007930;28;98934;-78
2023/06/26 10:23:27;;;;;;;20.48;19.17;;;;;;;32.91;31.70;100065.28;5029392;28;98411;-79
2023/06/26 10:25:55;;;;;;;20.48;19.27;;;;;;;32.85;31.82;100068.81;5007430;28;97316;-79
2023/06/26 10:28:22;;;;;;;21.58;19.67;;;;;;;32.65;31.06;100044.28;5006732;28;96993;-78
2023/06/26 10:30:50;;;;;;;19.85;18.55;;;;;;;32.51;30.64;100061.56;4999417;28;98603;-79
2023/06/26 10:33:16;;;;;;;20.00;18.80;;;;;;;32.44;30.85;100068.81;5018258;28;98238;-79
2023/06/26 10:35:45;;;;;;;20.30;19.00;;;;;;;32.53;31.62;100062.22;5011466;28;97402;-79
2023/06/26 10:38:11;;;;;;;20.45;19.00;;;;;;;32.51;31.44;100050.69;5003105;28;97276;-79
2023/06/26 10:40:41;;;;;;;20.42;18.67;;;;;;;32.54;30.72;100057.59;5017281;28;98748;-81
2023/06/26 10:43:11;;;;;;;;;;;;;;;32.15;30.63;100061.75;5014146;28;98665;-81
2023/06/26 10:45:37;;;;;;;21.23;19.58;;;;;;;31.81;30.53;100071.50;5019049;28;97667;-81
2023/06/26 10:48:04;;;;;;;20.08;18.75;;;;;;;31.80;30.73;100061.69;5003803;28;96938;-81
2023/06/26 10:50:37;;;;;;;20.45;18.70;;;;;;;31.87;30.94;100057.13;5014446;28;98725;-82
2023/06/26 10:53:15;;;;;;;19.95;18.67;;;;;;;31.96;31.17;100060.56;5017783;28;99187;-82
2023/06/26 10:55:42;;;;;;;20.27;18.98;;;;;;;31.27;31.20;100050.31;5014143;28;96832;-82
2023/06/26 10:58:28;;;;;;;21.13;19.70;;;;;;;30.75;32.21;100059.50;5026136;28;96884;-81
2023/06/26 11:01:14;;;;;;;20.20;18.90;;;;;;;30.87;32.36;100056.16;5015777;28;98719;-82
2023/06/26 11:04:10;;;;;;;20.17;18.95;;;;;;;31.16;33.10;100058.97;5020222;28;98901;-82
2023/06/26 11:06:38;;;;;;;20.85;19.52;;;;;;;31.41;33.04;100054.03;4994667;28;98145;-82
2023/06/26 11:09:04;;;;;;;20.40;18.95;;;;;;;31.29;32.63;100050.97;5004843;28;97120;-79